Time;durP1;ratioP1;P1;durP2;ratioP2;P2;SDS_P1;SDS_P2;PMS_P1;PMS_P2;Temp;Humidity;BMP_temperature;BMP_pressure;BME280_temperature;BME280_humidity;BME280_pressure;Samples;Min_cycle;Max_cycle;Signal;HPM_P1;HPM_P2
2023/07/18 00:00:45;;;;;;;5.43;2.78;;;18.80;60.90;;;;;;5109519;28;20058;-65
2023/07/18 00:03:15;;;;;;;4.82;2.80;;;18.70;61.00;;;;;;5110669;28;20058;-65
2023/07/18 00:05:42;;;;;;;4.57;2.53;;;18.60;61.10;;;;;;5102743;28;20128;-64
2023/07/18 00:08:09;;;;;;;5.70;2.70;;;18.60;61.20;;;;;;5103727;28;20063;-64
2023/07/18 00:10:36;;;;;;;5.35;2.72;;;18.50;61.60;;;;;;5105508;28;20062;-64
2023/07/18 00:13:04;;;;;;;4.82;2.42;;;18.50;61.70;;;;;;5106654;28;20047;-63
2023/07/18 00:15:31;;;;;;;4.47;2.47;;;18.50;61.80;;;;;;5111387;28;20246;-63
2023/07/18 00:18:02;;;;;;;4.88;2.40;;;18.40;61.90;;;;;;5109738;28;20134;-64
2023/07/18 00:20:29;;;;;;;5.57;2.55;;;18.30;62.30;;;;;;5113862;28;20056;-65
2023/07/18 00:22:56;;;;;;;5.57;2.78;;;18.20;62.40;;;;;;5111360;28;20059;-64
2023/07/18 00:25:23;;;;;;;3.95;2.25;;;18.20;62.40;;;;;;5113096;28;20505;-63
2023/07/18 00:27:53;;;;;;;6.43;2.53;;;18.20;62.50;;;;;;5111105;28;20040;-64
2023/07/18 00:30:20;;;;;;;5.07;2.58;;;18.20;62.70;;;;;;5113692;27;20051;-65
2023/07/18 00:32:48;;;;;;;4.78;2.50;;;18.10;62.80;;;;;;5114979;27;20146;-64
2023/07/18 00:35:16;;;;;;;3.92;2.30;;;18.10;62.80;;;;;;5117787;27;20055;-66
2023/07/18 00:37:44;;;;;;;6.00;2.42;;;18.10;63.10;;;;;;5109957;27;20051;-65
2023/07/18 00:40:14;;;;;;;4.93;2.55;;;18.00;63.30;;;;;;5115657;27;20058;-64
2023/07/18 00:42:43;;;;;;;4.47;2.53;;;17.90;63.50;;;;;;5114290;27;20177;-64
2023/07/18 00:45:10;;;;;;;6.63;3.03;;;17.90;63.60;;;;;;5113612;27;20103;-65
2023/07/18 00:47:40;;;;;;;5.78;2.67;;;17.90;63.60;;;;;;5120957;27;20035;-65
2023/07/18 00:50:08;;;;;;;6.45;2.55;;;17.90;63.80;;;;;;5120983;27;20047;-66
2023/07/18 00:52:40;;;;;;;7.53;2.85;;;17.80;64.10;;;;;;5100199;27;20056;-65
2023/07/18 00:55:10;;;;;;;6.18;3.10;;;17.70;64.30;;;;;;5118850;27;20051;-66
2023/07/18 00:57:39;;;;;;;6.22;3.08;;;17.70;64.40;;;;;;5119674;27;20115;-66
2023/07/18 01:00:11;;;;;;;6.32;3.03;;;17.80;64.40;;;;;;5117052;27;20047;-65
2023/07/18 01:02:39;;;;;;;7.45;3.40;;;17.70;64.40;;;;;;5118610;27;20039;-64
2023/07/18 01:05:07;;;;;;;6.10;3.35;;;17.70;64.60;;;;;;5118297;27;20050;-65
2023/07/18 01:07:35;;;;;;;5.00;3.30;;;17.70;64.80;;;;;;5119596;27;20090;-66
2023/07/18 01:10:23;;;;;;;7.05;3.30;;;17.60;65.10;;;;;;5116448;27;20093;-66
2023/07/18 01:12:51;;;;;;;5.50;3.13;;;17.50;65.40;;;;;;5116822;27;20092;-66
2023/07/18 01:15:19;;;;;;;5.97;3.40;;;17.50;65.60;;;;;;5117176;27;20047;-64
2023/07/18 01:17:46;;;;;;;5.78;2.92;;;17.40;65.70;;;;;;5096640;27;20131;-66
2023/07/18 01:20:18;;;;;;;6.85;3.20;;;17.40;65.70;;;;;;5114654;27;20059;-66
2023/07/18 01:22:48;;;;;;;5.53;2.83;;;17.40;65.50;;;;;;5118592;27;20070;-64
2023/07/18 01:25:16;;;;;;;6.25;3.25;;;17.40;65.50;;;;;;5098856;27;20048;-65
2023/07/18 01:27:43;;;;;;;5.45;3.00;;;17.40;65.60;;;;;;5115926;27;20039;-66
2023/07/18 01:30:14;;;;;;;4.95;2.60;;;17.30;65.60;;;;;;5119725;27;20043;-65
2023/07/18 01:32:42;;;;;;;6.65;3.10;;;17.20;65.80;;;;;;5117817;27;20130;-65
2023/07/18 01:35:09;;;;;;;5.85;3.05;;;17.20;65.90;;;;;;5117502;27;20039;-65
2023/07/18 01:37:37;;;;;;;5.00;2.83;;;17.20;65.90;;;;;;5097558;27;20043;-65
2023/07/18 01:40:09;;;;;;;5.20;2.40;;;17.10;66.20;;;;;;5109206;27;20057;-65
2023/07/18 01:42:36;;;;;;;5.40;2.80;;;17.10;66.40;;;;;;5116344;27;20107;-65
2023/07/18 01:45:04;;;;;;;5.32;2.70;;;17.00;66.30;;;;;;5116558;27;21520;-65
2023/07/18 01:47:32;;;;;;;4.95;2.50;;;17.00;66.30;;;;;;5115617;27;20047;-65
2023/07/18 01:49:59;;;;;;;6.32;2.75;;;17.00;66.40;;;;;;5118566;27;20086;-65
2023/07/18 01:52:27;;;;;;;5.30;2.72;;;16.90;66.50;;;;;;5118338;27;20537;-65
2023/07/18 01:54:57;;;;;;;5.07;2.67;;;16.90;66.60;;;;;;5094585;27;20070;-65
2023/07/18 01:57:26;;;;;;;6.03;2.83;;;16.90;66.60;;;;;;5098977;27;20046;-66
2023/07/18 01:59:54;;;;;;;5.63;3.00;;;16.80;66.80;;;;;;5094257;27;20104;-64
2023/07/18 02:02:21;;;;;;;5.18;2.55;;;16.80;67.00;;;;;;5118114;27;20043;-66
2023/07/18 02:04:49;;;;;;;5.60;2.75;;;16.80;67.00;;;;;;5119906;27;20048;-66
2023/07/18 02:07:16;;;;;;;8.13;3.20;;;16.80;67.10;;;;;;5100291;27;20066;-69
2023/07/18 02:09:43;;;;;;;6.50;3.03;;;16.70;67.20;;;;;;5113638;27;20047;-65
2023/07/18 02:12:10;;;;;;;5.88;2.90;;;16.70;67.30;;;;;;5100248;27;20040;-65
2023/07/18 02:14:39;;;;;;;5.43;3.13;;;16.70;67.40;;;;;;5119647;27;20046;-64
2023/07/18 02:17:08;;;;;;;5.18;2.88;;;16.60;67.40;;;;;;5115469;27;20081;-65
2023/07/18 02:19:35;;;;;;;5.60;3.30;;;16.60;67.50;;;;;;5118995;27;20481;-65
2023/07/18 02:22:02;;;;;;;6.10;2.97;;;16.60;67.50;;;;;;5102284;27;20058;-65
2023/07/18 02:24:29;;;;;;;5.20;2.92;;;16.60;67.50;;;;;;5117822;27;20035;-65
2023/07/18 02:26:57;;;;;;;5.63;2.90;;;16.60;67.40;;;;;;5117020;27;20078;-65
2023/07/18 02:29:23;;;;;;;6.32;3.00;;;16.50;67.50;;;;;;5119336;27;20417;-64
2023/07/18 02:31:53;;;;;;;6.25;3.67;;;16.50;67.50;;;;;;5116725;27;20039;-65
2023/07/18 02:34:20;;;;;;;5.70;3.30;;;16.40;67.70;;;;;;5102675;27;20048;-65
2023/07/18 02:36:47;;;;;;;5.78;3.17;;;16.40;67.80;;;;;;5117295;27;20054;-65
2023/07/18 02:39:15;;;;;;;6.95;3.10;;;16.30;67.90;;;;;;5097439;27;20080;-64
2023/07/18 02:41:42;;;;;;;5.10;3.25;;;16.30;68.00;;;;;;5095720;27;20071;-64
2023/07/18 02:44:10;;;;;;;6.35;3.30;;;16.30;68.10;;;;;;5097300;27;20047;-64
2023/07/18 02:46:37;;;;;;;7.00;2.80;;;16.20;68.20;;;;;;5118765;27;20616;-64
2023/07/18 02:49:05;;;;;;;6.18;2.85;;;16.20;68.20;;;;;;5117460;27;20378;-64
2023/07/18 02:51:32;;;;;;;6.15;3.33;;;16.10;68.30;;;;;;5112657;27;20056;-64
2023/07/18 02:53:59;;;;;;;5.88;3.00;;;16.10;68.50;;;;;;5090751;27;20051;-63
2023/07/18 02:56:26;;;;;;;4.85;3.05;;;16.10;68.60;;;;;;5118483;27;20543;-65
2023/07/18 02:58:53;;;;;;;5.93;3.35;;;16.10;68.70;;;;;;5112821;27;20047;-63
2023/07/18 03:01:20;;;;;;;5.55;2.95;;;16.10;68.60;;;;;;5109495;27;20039;-65
2023/07/18 03:03:47;;;;;;;5.93;3.28;;;16.10;68.60;;;;;;5090780;27;20052;-65
2023/07/18 03:06:16;;;;;;;5.85;2.88;;;16.00;68.80;;;;;;5099083;28;20059;-64
2023/07/18 03:08:43;;;;;;;8.52;3.10;;;16.00;68.90;;;;;;5113816;27;20053;-64
2023/07/18 03:11:10;;;;;;;5.85;2.88;;;16.00;69.00;;;;;;5095977;27;20162;-69
2023/07/18 03:13:37;;;;;;;5.80;3.22;;;15.90;69.10;;;;;;5097822;27;20040;-65
2023/07/18 03:16:04;;;;;;;6.10;2.83;;;15.90;69.20;;;;;;5111722;27;20055;-65
2023/07/18 03:18:32;;;;;;;4.97;2.80;;;15.90;69.30;;;;;;5111182;27;20054;-65
2023/07/18 03:20:59;;;;;;;4.63;2.88;;;15.90;69.30;;;;;;5117696;27;20084;-64
2023/07/18 03:23:28;;;;;;;6.15;3.22;;;15.80;69.40;;;;;;5116058;27;20051;-65
2023/07/18 03:25:55;;;;;;;6.10;3.25;;;15.80;69.40;;;;;;5117176;27;20058;-64
2023/07/18 03:28:23;;;;;;;5.40;3.17;;;15.70;69.50;;;;;;5115523;28;20048;-64
2023/07/18 03:30:50;;;;;;;5.10;2.72;;;15.70;69.60;;;;;;5116838;27;20479;-65
2023/07/18 03:33:17;;;;;;;5.90;3.20;;;15.70;69.50;;;;;;5111602;27;20043;-64
2023/07/18 03:35:44;;;;;;;5.43;3.03;;;15.70;69.60;;;;;;5112293;27;20058;-64
2023/07/18 03:38:11;;;;;;;5.28;3.20;;;15.60;69.60;;;;;;5116088;28;20052;-64
2023/07/18 03:40:39;;;;;;;5.22;2.95;;;15.60;69.60;;;;;;5118370;28;20536;-64
2023/07/18 03:43:06;;;;;;;6.50;3.22;;;15.60;69.60;;;;;;5091032;28;20055;-64
2023/07/18 03:45:33;;;;;;;5.57;3.20;;;15.60;69.70;;;;;;5116412;28;20047;-64
2023/07/18 03:48:00;;;;;;;5.82;3.13;;;15.60;69.70;;;;;;5115070;28;20051;-64
2023/07/18 03:50:27;;;;;;;6.70;3.40;;;15.60;69.60;;;;;;5106266;28;20071;-65
2023/07/18 03:52:54;;;;;;;5.00;3.00;;;15.60;69.60;;;;;;5116219;28;20043;-66
2023/07/18 03:55:21;;;;;;;7.10;3.53;;;15.60;69.80;;;;;;5117354;28;20534;-65
2023/07/18 03:57:50;;;;;;;6.22;3.15;;;15.50;69.80;;;;;;5117461;28;20043;-65
2023/07/18 04:00:18;;;;;;;6.00;3.22;;;15.60;69.80;;;;;;5112797;28;20043;-63
2023/07/18 04:02:46;;;;;;;5.32;3.00;;;15.50;69.80;;;;;;5114810;28;20043;-65
2023/07/18 04:05:14;;;;;;;7.68;3.67;;;15.50;69.80;;;;;;5116055;27;20116;-64
2023/07/18 04:07:43;;;;;;;6.68;3.97;;;15.50;69.90;;;;;;5116069;27;20052;-65
2023/07/18 04:10:12;;;;;;;5.47;3.40;;;15.50;69.90;;;;;;5119383;27;20405;-64
2023/07/18 04:12:39;;;;;;;6.07;3.70;;;15.40;70.10;;;;;;5119977;27;20047;-64
2023/07/18 04:15:09;;;;;;;5.97;3.40;;;15.40;70.10;;;;;;5121067;27;20067;-65
2023/07/18 04:17:36;;;;;;;6.60;3.63;;;15.40;70.20;;;;;;5117719;27;20508;-64
2023/07/18 04:20:04;;;;;;;6.82;3.78;;;15.40;70.10;;;;;;5121631;27;20391;-65
2023/07/18 04:22:31;;;;;;;6.85;3.80;;;15.40;69.90;;;;;;5115957;27;20043;-64
2023/07/18 04:24:58;;;;;;;6.97;3.63;;;15.50;69.90;;;;;;5121609;27;20046;-64
2023/07/18 04:27:27;;;;;;;5.93;3.60;;;15.50;69.70;;;;;;5113283;27;20043;-64
2023/07/18 04:29:54;;;;;;;6.50;3.55;;;15.50;69.70;;;;;;5118498;27;20116;-64
2023/07/18 04:32:22;;;;;;;7.57;3.85;;;15.60;69.60;;;;;;5119312;27;20052;-64
2023/07/18 04:34:49;;;;;;;5.85;3.50;;;15.60;69.40;;;;;;5120212;27;20035;-65
2023/07/18 04:37:16;;;;;;;6.22;3.70;;;15.60;69.60;;;;;;5118821;27;20514;-66
2023/07/18 04:39:43;;;;;;;5.70;3.47;;;15.60;69.30;;;;;;5116160;27;20054;-64
2023/07/18 04:42:11;;;;;;;6.47;3.47;;;15.60;69.30;;;;;;5117185;27;20089;-63
2023/07/18 04:44:38;;;;;;;6.82;3.72;;;15.60;69.10;;;;;;5117763;27;20039;-66
2023/07/18 04:47:05;;;;;;;5.85;3.33;;;15.60;68.80;;;;;;5112239;27;20108;-65
2023/07/18 04:49:33;;;;;;;5.68;3.75;;;15.70;69.00;;;;;;5115891;27;20043;-65
2023/07/18 04:52:00;;;;;;;6.15;3.72;;;15.70;68.90;;;;;;5119501;27;20119;-65
2023/07/18 04:54:27;;;;;;;7.35;3.85;;;15.70;68.80;;;;;;5120210;27;20039;-65
2023/07/18 04:56:55;;;;;;;6.82;4.15;;;15.70;69.10;;;;;;5117469;27;20563;-65
2023/07/18 04:59:22;;;;;;;6.63;3.80;;;15.70;69.40;;;;;;5119359;27;20066;-64
2023/07/18 05:01:52;;;;;;;6.18;3.50;;;15.60;69.60;;;;;;5117226;27;20050;-65
2023/07/18 05:04:19;;;;;;;7.78;3.55;;;15.60;69.70;;;;;;5116922;27;20058;-64
2023/07/18 05:06:48;;;;;;;6.32;3.42;;;15.70;69.30;;;;;;5118900;27;20047;-64
2023/07/18 05:09:16;;;;;;;5.78;3.38;;;15.80;69.20;;;;;;5115272;27;20043;-66
2023/07/18 05:11:43;;;;;;;5.30;3.03;;;15.80;69.30;;;;;;5120621;27;20087;-65
2023/07/18 05:14:09;;;;;;;6.18;3.17;;;15.80;69.40;;;;;;5119133;27;20047;-65
2023/07/18 05:16:36;;;;;;;6.22;3.20;;;15.80;69.40;;;;;;5120241;27;20040;-66
2023/07/18 05:19:03;;;;;;;5.40;2.85;;;15.90;69.10;;;;;;5099323;27;20048;-64
2023/07/18 05:21:30;;;;;;;6.97;3.10;;;15.90;69.20;;;;;;5121360;27;20044;-65
2023/07/18 05:23:58;;;;;;;7.03;3.10;;;15.90;69.20;;;;;;5111236;27;20047;-65
2023/07/18 05:26:25;;;;;;;6.00;3.42;;;15.90;69.20;;;;;;5121010;27;20063;-64
2023/07/18 05:28:52;;;;;;;6.50;3.70;;;15.90;69.30;;;;;;5118397;27;20051;-63
2023/07/18 05:31:20;;;;;;;7.45;2.97;;;15.90;69.40;;;;;;5109290;27;20091;-65
2023/07/18 05:33:47;;;;;;;6.38;3.42;;;15.90;69.50;;;;;;5118245;27;20126;-64
2023/07/18 05:36:15;;;;;;;7.63;3.47;;;16.00;69.40;;;;;;5118649;27;20043;-65
2023/07/18 05:38:42;;;;;;;7.28;3.60;;;16.00;69.10;;;;;;5120058;27;20043;-65
2023/07/18 05:41:10;;;;;;;6.97;3.38;;;16.00;69.30;;;;;;5121564;27;20036;-64
2023/07/18 05:43:38;;;;;;;6.32;3.53;;;16.10;69.20;;;;;;5116204;27;20059;-65
2023/07/18 05:46:04;;;;;;;5.72;3.28;;;16.10;68.90;;;;;;5116036;27;20040;-63
2023/07/18 05:48:31;;;;;;;6.68;3.60;;;16.20;69.00;;;;;;5119365;27;20054;-65
2023/07/18 05:51:00;;;;;;;5.70;3.40;;;16.20;68.90;;;;;;5119995;27;20490;-65
2023/07/18 05:53:27;;;;;;;6.95;3.55;;;16.20;68.80;;;;;;5120337;27;20050;-65
2023/07/18 05:55:54;;;;;;;5.65;3.25;;;16.30;68.90;;;;;;5117018;27;20066;-64
2023/07/18 05:58:23;;;;;;;6.85;3.33;;;16.30;68.60;;;;;;5118810;27;20492;-64
2023/07/18 06:00:50;;;;;;;8.32;3.60;;;16.30;68.90;;;;;;5117342;27;20044;-64
2023/07/18 06:03:17;;;;;;;9.18;3.15;;;16.30;68.80;;;;;;5093832;27;20059;-64
2023/07/18 06:05:44;;;;;;;5.53;2.70;;;16.30;68.70;;;;;;5116909;27;20043;-67
2023/07/18 06:08:11;;;;;;;4.70;2.65;;;16.30;69.00;;;;;;5118330;27;20126;-65
2023/07/18 06:10:38;;;;;;;4.70;2.78;;;16.40;69.10;;;;;;5117950;27;20119;-65
2023/07/18 06:13:05;;;;;;;5.15;2.78;;;16.40;68.80;;;;;;5112777;27;20038;-66
2023/07/18 06:15:36;;;;;;;6.25;3.50;;;16.40;69.10;;;;;;5117669;27;20051;-66
2023/07/18 06:18:03;;;;;;;5.13;3.00;;;16.50;68.80;;;;;;5117982;27;20048;-65
2023/07/18 06:20:32;;;;;;;6.72;3.40;;;16.50;68.80;;;;;;5093748;27;20135;-65
2023/07/18 06:23:02;;;;;;;5.50;3.13;;;16.60;68.50;;;;;;5095431;28;20048;-64
2023/07/18 06:25:29;;;;;;;5.85;3.00;;;16.60;68.30;;;;;;5115697;27;20039;-65
2023/07/18 06:27:56;;;;;;;5.55;3.05;;;16.60;68.20;;;;;;5117507;27;20406;-64
2023/07/18 06:30:23;;;;;;;6.38;3.00;;;16.70;67.90;;;;;;5114303;27;20083;-65
2023/07/18 06:32:51;;;;;;;5.80;2.95;;;16.80;68.10;;;;;;5113934;27;20048;-65
2023/07/18 06:35:18;;;;;;;5.47;2.83;;;16.80;67.80;;;;;;5113034;27;20047;-63
2023/07/18 06:37:45;;;;;;;7.50;3.53;;;17.00;67.80;;;;;;5099399;27;20046;-66
2023/07/18 06:40:13;;;;;;;6.93;3.33;;;17.00;67.40;;;;;;5115772;27;20463;-64
2023/07/18 06:42:40;;;;;;;4.70;2.80;;;17.00;67.70;;;;;;5115168;27;20452;-65
2023/07/18 06:45:08;;;;;;;6.32;2.95;;;17.20;67.00;;;;;;5116445;27;20066;-66
2023/07/18 06:47:35;;;;;;;5.15;2.90;;;17.30;67.00;;;;;;5113699;27;20052;-66
2023/07/18 06:50:04;;;;;;;6.35;2.97;;;17.50;66.60;;;;;;5114793;27;20085;-66
2023/07/18 06:52:31;;;;;;;7.15;3.10;;;17.60;65.90;;;;;;5112620;27;20494;-65
2023/07/18 06:54:57;;;;;;;5.55;2.90;;;17.80;66.30;;;;;;5117172;27;20054;-66
2023/07/18 06:57:34;;;;;;;5.65;3.08;;;18.00;66.00;;;;;;5115235;27;20040;-64
2023/07/18 07:00:04;;;;;;;6.05;3.20;;;18.20;65.50;;;;;;5115678;27;20051;-66
2023/07/18 07:02:31;;;;;;;5.50;2.80;;;18.40;64.70;;;;;;5116271;27;20051;-64
2023/07/18 07:04:57;;;;;;;8.20;3.00;;;18.60;64.60;;;;;;5110828;27;20403;-66
2023/07/18 07:07:26;;;;;;;5.35;3.13;;;18.70;64.30;;;;;;5115692;27;20050;-66
2023/07/18 07:09:53;;;;;;;6.60;3.45;;;18.90;63.90;;;;;;5110944;27;20048;-66
2023/07/18 07:12:20;;;;;;;7.43;3.50;;;19.10;63.40;;;;;;5113706;27;20040;-65
2023/07/18 07:14:47;;;;;;;6.57;3.25;;;19.30;63.20;;;;;;5109674;27;20052;-66
2023/07/18 07:17:14;;;;;;;6.30;2.97;;;19.50;62.90;;;;;;5112558;27;20046;-65
2023/07/18 07:19:41;;;;;;;7.05;3.00;;;19.50;62.80;;;;;;5115677;27;20047;-65
2023/07/18 07:22:11;;;;;;;5.43;2.90;;;19.80;62.40;;;;;;5117759;27;20060;-65
2023/07/18 07:24:39;;;;;;;6.22;2.85;;;19.90;62.20;;;;;;5113185;27;20043;-66
2023/07/18 07:27:07;;;;;;;5.70;2.80;;;20.10;61.40;;;;;;5115145;27;20051;-65
2023/07/18 07:29:34;;;;;;;6.40;2.92;;;20.30;60.70;;;;;;5117552;27;20058;-65
2023/07/18 07:32:01;;;;;;;6.93;2.85;;;20.60;60.10;;;;;;5114654;27;20061;-66
2023/07/18 07:34:29;;;;;;;5.55;2.78;;;20.80;59.60;;;;;;5119365;27;20043;-65
2023/07/18 07:36:56;;;;;;;6.55;2.85;;;20.80;59.60;;;;;;5117906;28;20402;-66
2023/07/18 07:39:23;;;;;;;5.13;2.78;;;21.10;59.40;;;;;;5115530;28;20051;-67
2023/07/18 07:41:51;;;;;;;5.20;2.80;;;21.20;59.10;;;;;;5116128;28;20088;-65
2023/07/18 07:44:18;;;;;;;3.78;2.20;;;21.20;58.40;;;;;;5112747;28;20088;-66
2023/07/18 07:46:45;;;;;;;8.32;2.55;;;21.40;58.10;;;;;;5111761;28;20139;-65
2023/07/18 07:49:12;;;;;;;5.05;2.67;;;21.60;57.60;;;;;;5115406;28;20099;-66
2023/07/18 07:51:39;;;;;;;4.88;2.15;;;21.80;56.90;;;;;;5115078;28;20039;-66
2023/07/18 07:54:06;;;;;;;6.95;2.45;;;22.10;56.30;;;;;;5113477;28;20043;-65
2023/07/18 07:56:33;;;;;;;5.57;2.60;;;22.20;55.30;;;;;;5115830;28;20070;-67
2023/07/18 07:59:02;;;;;;;7.85;2.10;;;22.30;54.00;;;;;;5116509;28;20055;-67
2023/07/18 08:01:29;;;;;;;4.60;1.90;;;22.50;52.60;;;;;;5115165;28;20047;-68
2023/07/18 08:03:56;;;;;;;4.78;2.20;;;22.60;52.40;;;;;;5114406;28;20062;-69
2023/07/18 08:06:23;;;;;;;3.45;1.83;;;22.70;52.00;;;;;;5112758;27;20104;-69
2023/07/18 08:08:49;;;;;;;4.45;2.03;;;22.90;51.50;;;;;;5112548;28;20047;-70
2023/07/18 08:11:17;;;;;;;3.92;1.80;;;23.00;50.90;;;;;;5116678;28;20036;-69
2023/07/18 08:13:44;;;;;;;3.65;1.70;;;23.20;50.30;;;;;;5115167;28;20044;-68
2023/07/18 08:16:12;;;;;;;4.20;2.20;;;23.40;50.40;;;;;;5112343;28;20043;-66
2023/07/18 08:18:39;;;;;;;5.95;2.28;;;23.50;50.40;;;;;;5115332;28;20446;-67
2023/07/18 08:21:06;;;;;;;4.90;2.53;;;23.60;49.20;;;;;;5114256;28;20047;-68
2023/07/18 08:23:33;;;;;;;3.85;2.10;;;23.60;49.00;;;;;;5116016;28;20039;-68
2023/07/18 08:26:00;;;;;;;5.25;2.97;;;23.80;48.70;;;;;;5115376;28;20043;-69
2023/07/18 08:28:27;;;;;;;4.40;2.83;;;24.00;48.80;;;;;;5112632;28;20040;-68
2023/07/18 08:30:54;;;;;;;7.32;3.80;;;24.10;48.20;;;;;;5111959;28;20036;-67
2023/07/18 08:33:24;;;;;;;6.97;4.28;;;24.20;48.40;;;;;;5115042;28;20055;-68
2023/07/18 08:35:51;;;;;;;7.28;3.90;;;24.30;48.10;;;;;;5112925;28;20134;-68
2023/07/18 08:38:18;;;;;;;8.20;4.38;;;24.40;47.10;;;;;;5117314;28;20055;-67
2023/07/18 08:40:45;;;;;;;9.18;4.82;;;24.50;47.20;;;;;;5113796;27;20044;-67
2023/07/18 08:43:14;;;;;;;6.32;4.00;;;24.60;47.60;;;;;;5114396;28;20040;-68
2023/07/18 08:45:41;;;;;;;5.00;2.80;;;24.60;46.70;;;;;;5115601;28;20039;-68
2023/07/18 08:48:09;;;;;;;6.18;3.05;;;24.80;45.90;;;;;;5118775;28;20482;-67
2023/07/18 08:50:40;;;;;;;8.02;3.95;;;25.00;45.90;;;;;;5114461;28;20043;-67
2023/07/18 08:53:07;;;;;;;5.68;2.88;;;25.00;45.90;;;;;;5119450;27;20107;-67
2023/07/18 08:55:36;;;;;;;3.97;2.50;;;25.10;45.30;;;;;;5116350;27;20051;-68
2023/07/18 08:58:04;;;;;;;5.95;2.65;;;25.10;45.40;;;;;;5115852;27;20040;-67
2023/07/18 09:00:30;;;;;;;5.43;2.60;;;25.30;45.10;;;;;;5116628;27;20065;-68
2023/07/18 09:02:57;;;;;;;4.30;2.50;;;25.40;45.10;;;;;;5115796;27;20062;-68
2023/07/18 09:05:32;;;;;;;5.75;2.45;;;25.50;44.80;;;;;;5119274;27;20043;-68
2023/07/18 09:08:01;;;;;;;5.72;2.22;;;25.60;44.30;;;;;;5119595;27;20054;-67
2023/07/18 09:10:29;;;;;;;5.13;2.50;;;25.70;44.40;;;;;;5113277;27;20226;-66
2023/07/18 09:13:00;;;;;;;4.00;2.10;;;25.70;44.10;;;;;;5116995;27;20585;-67
2023/07/18 09:15:27;;;;;;;4.15;2.40;;;25.70;44.10;;;;;;5120308;27;20036;-68
2023/07/18 09:17:55;;;;;;;5.22;2.30;;;25.90;42.80;;;;;;5118468;27;20050;-66
2023/07/18 09:20:24;;;;;;;4.20;2.00;;;26.00;42.50;;;;;;5119427;27;20043;-66
2023/07/18 09:22:56;;;;;;;4.75;1.85;;;26.10;42.00;;;;;;5098168;27;20071;-67
2023/07/18 09:25:25;;;;;;;6.07;2.10;;;26.10;41.70;;;;;;5116561;27;20646;-67
2023/07/18 09:27:52;;;;;;;5.07;1.83;;;26.30;41.30;;;;;;5117680;27;20410;-67
2023/07/18 09:30:23;;;;;;;4.10;1.67;;;26.40;41.00;;;;;;5117415;27;20056;-68
2023/07/18 09:32:51;;;;;;;4.10;2.00;;;26.50;40.80;;;;;;5116926;27;20044;-67
2023/07/18 09:35:18;;;;;;;4.10;1.83;;;26.70;40.50;;;;;;5117384;27;20042;-67
2023/07/18 09:37:47;;;;;;;4.50;1.75;;;26.90;39.50;;;;;;5118119;27;20051;-65
2023/07/18 09:40:15;;;;;;;3.85;1.83;;;26.90;39.10;;;;;;5121169;27;20404;-67
2023/07/18 09:42:45;;;;;;;4.23;1.87;;;26.80;39.40;;;;;;5117669;27;20047;-67
2023/07/18 09:45:12;;;;;;;4.75;2.22;;;26.90;39.30;;;;;;5118350;27;20039;-67
2023/07/18 09:47:41;;;;;;;6.53;3.78;;;27.00;38.80;;;;;;5117514;27;20063;-68
2023/07/18 09:50:09;;;;;;;10.93;5.60;;;27.10;38.60;;;;;;5119287;27;20074;-67
2023/07/18 09:52:37;;;;;;;9.80;6.90;;;27.10;38.30;;;;;;5118784;27;20040;-68
2023/07/18 09:55:09;;;;;;;9.85;6.00;;;27.10;37.80;;;;;;5113709;27;20039;-68
2023/07/18 09:57:40;;;;;;;7.13;4.28;;;27.20;37.70;;;;;;5120912;27;20047;-68
2023/07/18 10:00:11;;;;;;;9.00;6.18;;;27.20;37.80;;;;;;5115058;27;20050;-67
2023/07/18 10:02:40;;;;;;;8.27;5.40;;;27.40;38.00;;;;;;5112861;27;20054;-68
2023/07/18 10:05:09;;;;;;;6.57;4.27;;;27.50;38.00;;;;;;5115795;27;20040;-67
2023/07/18 10:07:44;;;;;;;7.55;4.10;;;27.50;37.70;;;;;;5116293;27;20054;-66
2023/07/18 10:10:13;;;;;;;5.53;3.90;;;27.60;37.50;;;;;;5124360;27;20077;-68
2023/07/18 10:12:59;;;;;;;7.57;3.80;;;27.70;37.90;;;;;;5117309;27;20048;-66
2023/07/18 10:15:28;;;;;;;8.15;4.72;;;27.70;36.40;;;;;;5111896;27;20082;-67
2023/07/18 10:17:55;;;;;;;;;;;27.90;37.00;;;;;;5119771;27;20098;-67
2023/07/18 10:20:24;;;;;;;6.47;3.67;;;28.00;36.40;;;;;;5114653;27;19924;-68
2023/07/18 10:22:55;;;;;;;4.72;2.97;;;28.10;37.00;;;;;;5113007;27;20043;-67
2023/07/18 10:25:22;;;;;;;6.60;3.67;;;28.20;36.90;;;;;;5115112;27;20043;-67
2023/07/18 10:27:50;;;;;;;6.35;4.10;;;28.30;37.20;;;;;;5117631;27;20051;-68
2023/07/18 10:30:19;;;;;;;7.47;3.67;;;28.30;36.20;;;;;;5112656;27;20047;-67
2023/07/18 10:32:55;;;;;;;7.28;4.18;;;28.40;35.80;;;;;;5114617;27;20047;-68
2023/07/18 10:35:24;;;;;;;7.25;5.05;;;28.40;35.40;;;;;;5113709;27;20065;-66
2023/07/18 10:37:53;;;;;;;6.13;4.40;;;28.30;35.30;;;;;;5117319;27;20069;-66
2023/07/18 10:40:38;;;;;;;8.00;5.28;;;28.30;35.00;;;;;;5116168;27;20134;-67
2023/07/18 10:43:07;;;;;;;5.97;3.80;;;28.40;35.40;;;;;;5114186;27;20071;-66
2023/07/18 10:45:38;;;;;;;6.82;3.42;;;28.60;35.30;;;;;;5113815;27;20087;-67
2023/07/18 10:48:17;;;;;;;7.07;3.88;;;28.70;35.00;;;;;;5115570;27;20043;-65
2023/07/18 10:50:45;;;;;;;4.53;3.05;;;28.60;35.40;;;;;;5114264;27;20055;-67
2023/07/18 10:53:13;;;;;;;6.75;4.85;;;28.60;35.10;;;;;;5118450;27;20051;-68
2023/07/18 10:55:40;;;;;;;6.72;4.47;;;28.50;34.90;;;;;;5118508;27;20075;-67
2023/07/18 10:58:11;;;;;;;8.00;4.22;;;28.40;34.50;;;;;;5113990;27;20048;-66
2023/07/18 11:00:39;;;;;;;7.05;3.50;;;28.20;34.80;;;;;;5117107;27;20054;-67
2023/07/18 11:03:06;;;;;;;5.77;3.60;;;28.10;34.70;;;;;;5111407;27;20126;-67
2023/07/18 11:05:35;;;;;;;5.28;3.30;;;28.10;34.80;;;;;;5115335;27;20449;-67
2023/07/18 11:08:02;;;;;;;8.93;5.82;;;28.10;35.00;;;;;;5118094;27;20055;-68
2023/07/18 11:10:34;;;;;;;9.40;7.05;;;28.20;35.20;;;;;;5117319;27;20128;-67
2023/07/18 11:13:01;;;;;;;8.02;5.50;;;28.30;35.20;;;;;;5115810;27;20101;-67
2023/07/18 11:15:29;;;;;;;9.48;6.68;;;28.30;35.30;;;;;;5119291;27;20044;-67
2023/07/18 11:17:56;;;;;;;8.30;5.63;;;28.20;35.50;;;;;;5118719;27;20072;-67
2023/07/18 11:20:23;;;;;;;7.13;4.68;;;28.10;35.80;;;;;;5117340;27;20043;-67
2023/07/18 11:22:52;;;;;;;5.93;3.17;;;28.10;35.40;;;;;;5114671;27;20082;-67
2023/07/18 11:25:19;;;;;;;6.70;3.20;;;28.00;35.30;;;;;;5118483;27;20552;-68
2023/07/18 11:27:49;;;;;;;4.47;2.50;;;28.00;35.10;;;;;;5119434;27;20161;-67
2023/07/18 11:30:17;;;;;;;4.18;2.63;;;27.90;35.30;;;;;;5117774;27;20047;-67
2023/07/18 11:32:46;;;;;;;5.30;2.67;;;28.00;35.40;;;;;;5117465;27;20598;-66
2023/07/18 11:35:18;;;;;;;5.63;2.90;;;28.10;35.30;;;;;;5118837;27;20108;-68
2023/07/18 11:37:48;;;;;;;5.07;2.90;;;28.20;35.20;;;;;;5116182;28;20052;-65
2023/07/18 11:40:21;;;;;;;4.72;2.88;;;28.50;35.40;;;;;;5113608;28;20477;-68
2023/07/18 11:42:50;;;;;;;5.65;3.20;;;28.60;35.00;;;;;;5116910;28;20130;-67
2023/07/18 11:45:18;;;;;;;;;;;28.70;34.80;;;;;;5116115;28;20489;-67
2023/07/18 11:47:46;;;;;;;4.82;3.00;;;28.60;34.60;;;;;;5117560;28;19919;-67
2023/07/18 11:50:14;;;;;;;5.60;3.40;;;28.70;35.30;;;;;;5116901;28;20047;-64
2023/07/18 11:52:42;;;;;;;5.83;3.17;;;28.80;34.80;;;;;;5116759;28;20051;-66
2023/07/18 11:55:10;;;;;;;5.40;2.95;;;28.70;34.40;;;;;;5116865;28;20047;-66
2023/07/18 11:57:38;;;;;;;6.90;3.33;;;28.80;35.00;;;;;;5119079;28;20092;-67
2023/07/18 12:00:08;;;;;;;6.63;3.13;;;28.70;35.00;;;;;;5112678;28;20487;-67
2023/07/18 12:02:39;;;;;;;4.22;2.42;;;28.60;34.70;;;;;;5118767;28;20070;-67
2023/07/18 12:05:08;;;;;;;4.95;2.42;;;28.50;34.00;;;;;;5117195;28;20043;-66
2023/07/18 12:07:35;;;;;;;3.63;2.00;;;28.60;34.40;;;;;;5113133;28;20044;-67
2023/07/18 12:10:02;;;;;;;4.30;2.55;;;28.80;35.10;;;;;;5105379;28;22584;-67
2023/07/18 12:12:29;;;;;;;5.85;2.20;;;28.80;35.30;;;;;;5110155;28;20047;-67
2023/07/18 12:14:57;;;;;;;7.20;2.50;;;28.80;34.40;;;;;;5110230;28;20173;-68
2023/07/18 12:17:24;;;;;;;4.38;2.75;;;28.80;34.60;;;;;;5110956;28;20047;-67
2023/07/18 12:19:51;;;;;;;3.35;2.15;;;28.90;34.60;;;;;;5113497;28;20122;-68
2023/07/18 12:22:19;;;;;;;4.28;2.20;;;29.00;33.40;;;;;;5114557;28;20398;-67
2023/07/18 12:24:47;;;;;;;3.33;1.80;;;29.10;34.10;;;;;;5112327;28;20490;-68
2023/07/18 12:27:15;;;;;;;5.25;2.65;;;29.20;33.80;;;;;;5115699;27;20105;-66
2023/07/18 12:29:42;;;;;;;6.70;2.63;;;29.30;34.70;;;;;;5116453;27;20043;-67
2023/07/18 12:32:11;;;;;;;5.22;2.42;;;29.40;34.80;;;;;;5114694;27;20402;-68
2023/07/18 12:34:39;;;;;;;4.05;2.25;;;29.30;34.60;;;;;;5119173;27;20043;-68
2023/07/18 12:37:06;;;;;;;6.23;2.73;;;29.20;34.40;;;;;;5119732;27;20050;-67
2023/07/18 12:39:32;;;;;;;7.28;2.22;;;29.30;34.30;;;;;;5121911;27;20473;-68
2023/07/18 12:42:00;;;;;;;4.63;2.63;;;29.20;34.40;;;;;;5120063;27;20055;-66
2023/07/18 12:44:38;;;;;;;3.70;2.20;;;29.20;34.10;;;;;;5122142;27;20047;-68
2023/07/18 12:47:06;;;;;;;5.43;2.65;;;29.10;33.20;;;;;;5119629;27;20957;-67
2023/07/18 12:49:38;;;;;;;4.72;2.72;;;29.10;34.30;;;;;;5068320;27;20051;-67
2023/07/18 12:52:06;;;;;;;3.70;2.15;;;29.00;34.60;;;;;;5107939;27;20194;-67